Time;durP1;ratioP1;P1;durP2;ratioP2;P2;SDS_P1;SDS_P2;PMS_P1;PMS_P2;Temp;Humidity;BMP_temperature;BMP_pressure;BME280_temperature;BME280_humidity;BME280_pressure;Samples;Min_cycle;Max_cycle;Signal;HPM_P1;HPM_P2
2022/12/05 00:01:18;;;;;;;35.97;17.77;;;;;;;4.48;100.00;96100.25;5105687;28;20250;-86
2022/12/05 00:03:46;;;;;;;36.77;16.50;;;;;;;4.45;100.00;96095.28;5116230;27;20183;-85
2022/12/05 00:06:14;;;;;;;30.33;16.97;;;;;;;4.47;100.00;96100.44;5111128;28;20274;-86
2022/12/05 00:08:41;;;;;;;32.17;17.53;;;;;;;4.48;100.00;96112.78;5101755;28;20204;-85
2022/12/05 00:11:13;;;;;;;29.67;16.63;;;;;;;4.50;100.00;96122.28;5102020;28;20287;-86
2022/12/05 00:13:41;;;;;;;31.20;17.60;;;;;;;4.46;100.00;96131.69;5104868;27;20194;-86
2022/12/05 00:16:10;;;;;;;29.83;16.70;;;;;;;4.53;100.00;96145.09;5104915;27;20198;-86
2022/12/05 00:18:37;;;;;;;35.77;17.57;;;;;;;4.45;100.00;96124.69;5117539;27;20222;-86
2022/12/05 00:21:05;;;;;;;30.10;17.83;;;;;;;4.46;100.00;96142.38;5116209;27;20226;-86
2022/12/05 00:23:34;;;;;;;34.03;18.77;;;;;;;4.40;100.00;96137.84;5110244;28;20221;-86
2022/12/05 00:26:03;;;;;;;29.90;17.23;;;;;;;4.42;100.00;96141.13;5101167;27;20260;-86
2022/12/05 00:28:31;;;;;;;34.10;18.10;;;;;;;4.45;100.00;96146.06;5110913;27;20196;-86
2022/12/05 00:31:01;;;;;;;29.57;17.30;;;;;;;4.47;100.00;96137.88;5107686;27;20290;-86
2022/12/05 00:33:28;;;;;;;29.90;17.67;;;;;;;4.56;100.00;96142.03;5107878;28;20223;-86
2022/12/05 00:35:55;;;;;;;32.87;18.23;;;;;;;4.47;100.00;96136.03;5114824;27;20223;-86
2022/12/05 00:38:22;;;;;;;33.57;17.03;;;;;;;4.40;100.00;96137.00;5105604;27;20261;-86
2022/12/05 00:40:50;;;;;;;30.70;17.50;;;;;;;4.41;100.00;96134.16;5116221;27;20228;-86
2022/12/05 00:43:17;;;;;;;31.13;17.20;;;;;;;4.35;100.00;96134.91;5098317;27;20208;-86
2022/12/05 00:45:45;;;;;;;32.80;17.17;;;;;;;4.35;100.00;96139.44;5109608;27;20196;-86
2022/12/05 00:48:12;;;;;;;30.97;16.07;;;;;;;4.37;100.00;96150.75;5097915;27;20250;-87
2022/12/05 00:50:39;;;;;;;30.87;17.03;;;;;;;4.40;100.00;96161.06;5104481;27;20208;-86
2022/12/05 00:53:08;;;;;;;32.53;17.27;;;;;;;4.35;100.00;96148.28;5102831;28;20252;-87
2022/12/05 00:55:36;;;;;;;29.73;16.77;;;;;;;4.29;100.00;96134.88;5108430;27;20232;-87
2022/12/05 00:58:05;;;;;;;32.67;17.30;;;;;;;4.31;100.00;96144.34;5100217;27;20203;-86
2022/12/05 01:00:32;;;;;;;28.97;17.43;;;;;;;4.39;100.00;96156.75;5103979;27;20235;-87
2022/12/05 01:02:59;;;;;;;29.93;17.17;;;;;;;4.34;100.00;96153.84;5099853;27;20206;-87
2022/12/05 01:05:27;;;;;;;27.97;17.23;;;;;;;4.36;100.00;96157.94;5105740;27;20192;-87
2022/12/05 01:07:54;;;;;;;30.90;16.83;;;;;;;4.32;100.00;96153.22;5099710;28;20208;-87
2022/12/05 01:10:21;;;;;;;31.60;17.57;;;;;;;4.35;100.00;96169.66;5109861;27;20283;-87
2022/12/05 01:12:48;;;;;;;28.27;15.40;;;;;;;4.34;100.00;96180.56;5100862;27;20254;-87
2022/12/05 01:15:16;;;;;;;29.30;16.77;;;;;;;4.31;100.00;96181.78;5103368;27;20230;-86
2022/12/05 01:17:43;;;;;;;29.07;16.23;;;;;;;4.32;100.00;96180.75;5107368;27;20277;-86
2022/12/05 01:20:11;;;;;;;28.53;16.70;;;;;;;4.18;100.00;96187.00;5115178;27;20215;-87
2022/12/05 01:22:38;;;;;;;30.90;16.67;;;;;;;4.14;100.00;96175.06;5102391;28;20223;-87
2022/12/05 01:25:08;;;;;;;32.53;17.47;;;;;;;4.20;100.00;96190.31;5103990;27;20220;-87
2022/12/05 01:27:35;;;;;;;34.20;17.67;;;;;;;4.15;100.00;96184.75;5104348;28;20200;-87
2022/12/05 01:30:03;;;;;;;30.97;17.30;;;;;;;4.16;100.00;96184.56;5099496;28;20232;-87
2022/12/05 01:32:32;;;;;;;29.87;15.97;;;;;;;4.16;100.00;96189.06;5106286;28;20230;-88
2022/12/05 01:34:59;;;;;;;26.97;14.23;;;;;;;4.11;100.00;96186.16;5107819;27;20257;-88
2022/12/05 01:38:16;;;;;;;25.93;14.47;;;;;;;4.08;100.00;96186.56;5104064;28;20200;-87
2022/12/05 01:40:44;;;;;;;23.93;14.13;;;;;;;4.08;100.00;96183.88;5080151;28;20212;-88
2022/12/05 01:43:15;;;;;;;20.57;12.43;;;;;;;4.09;100.00;96188.19;5097555;27;20194;-87
2022/12/05 01:49:13;;;;;;;20.40;11.83;;;;;;;3.93;100.00;96188.47;5104966;27;20203;-87
2022/12/05 01:51:45;;;;;;;18.70;11.50;;;;;;;3.97;100.00;96200.44;5104903;28;20350;-88
2022/12/05 01:54:13;;;;;;;17.97;10.87;;;;;;;3.89;100.00;96200.56;5111187;27;20199;-87
2022/12/05 01:56:44;;;;;;;20.10;12.23;;;;;;;3.87;100.00;96200.75;5105145;28;20197;-87
2022/12/05 01:59:13;;;;;;;21.33;12.17;;;;;;;3.82;100.00;96202.34;5104065;27;20203;-88
2022/12/05 02:01:41;;;;;;;23.77;13.67;;;;;;;3.85;100.00;96193.94;5102620;27;20220;-88
2022/12/05 02:04:18;;;;;;;22.83;12.73;;;;;;;3.97;100.00;96195.09;5102808;27;20243;-87
2022/12/05 02:06:45;;;;;;;17.70;11.43;;;;;;;3.89;100.00;96187.22;5112914;27;20203;-88
2022/12/05 02:09:12;;;;;;;20.90;11.77;;;;;;;3.96;100.00;96193.44;5109356;27;20199;-88
2022/12/05 02:11:50;;;;;;;21.73;11.83;;;;;;;3.93;100.00;96210.66;5110703;27;20223;-87
2022/12/05 02:14:28;;;;;;;21.17;12.47;;;;;;;3.80;100.00;96200.69;5097598;28;20207;-88
2022/12/05 02:17:06;;;;;;;18.30;11.03;;;;;;;3.75;100.00;96180.91;5109921;27;20295;-88
2022/12/05 02:19:55;;;;;;;17.07;10.63;;;;;;;3.68;100.00;96170.16;5099822;27;20246;-87
2022/12/05 02:22:49;;;;;;;17.53;10.10;;;;;;;3.65;100.00;96161.75;5100968;28;20231;-88
2022/12/05 02:29:00;;;;;;;13.93;9.20;;;;;;;3.64;100.00;96173.44;5109552;27;20200;-88
2022/12/05 02:31:36;;;;;;;14.57;9.10;;;;;;;3.66;100.00;96184.72;5124183;27;20210;-88
2022/12/05 02:34:10;;;;;;;14.67;9.27;;;;;;;3.66;100.00;96192.72;5099934;27;20207;-87
2022/12/05 02:36:44;;;;;;;12.37;8.27;;;;;;;3.61;100.00;96171.97;5115309;27;20198;-87
2022/12/05 02:39:18;;;;;;;15.83;8.90;;;;;;;3.61;100.00;96173.81;5106241;27;20200;-88
2022/12/05 02:41:51;;;;;;;13.30;8.93;;;;;;;3.54;100.00;96176.41;5108510;27;20304;-88
2022/12/05 02:44:24;;;;;;;17.13;10.57;;;;;;;3.47;100.00;96182.72;5112292;27;20195;-88
2022/12/05 02:46:55;;;;;;;18.50;10.57;;;;;;;3.54;100.00;96183.59;5099840;27;20200;-89
2022/12/05 02:49:26;;;;;;;17.63;10.30;;;;;;;3.58;100.00;96176.84;5106267;27;20274;-88
2022/12/05 02:51:57;;;;;;;17.10;9.80;;;;;;;3.59;100.00;96165.16;5097362;27;20208;-87
2022/12/05 02:54:28;;;;;;;14.67;9.13;;;;;;;3.57;100.00;96173.38;5105630;27;20246;-88
2022/12/05 02:56:58;;;;;;;19.37;10.17;;;;;;;3.49;100.00;96170.81;5099747;27;20215;-88
2022/12/05 02:59:25;;;;;;;17.00;10.30;;;;;;;3.49;100.00;96172.69;5104585;27;20230;-88
2022/12/05 03:01:54;;;;;;;17.27;10.03;;;;;;;3.50;100.00;96156.44;5102704;27;20208;-89
2022/12/05 03:04:24;;;;;;;16.67;9.77;;;;;;;3.58;100.00;96163.50;5099623;27;20207;-88
2022/12/05 03:06:56;;;;;;;16.17;9.57;;;;;;;3.59;100.00;96171.31;5095499;28;20240;-88
2022/12/05 03:09:27;;;;;;;17.53;10.13;;;;;;;3.57;100.00;96170.72;5106149;28;20196;-88
2022/12/05 03:12:03;;;;;;;15.57;9.87;;;;;;;3.71;100.00;96191.16;5100175;27;20211;-88
2022/12/05 03:14:33;;;;;;;16.97;10.70;;;;;;;3.70;100.00;96192.19;5090911;27;20211;-88
2022/12/05 03:17:07;;;;;;;17.70;11.03;;;;;;;3.64;100.00;96182.28;5099622;28;20200;-87
2022/12/05 03:19:42;;;;;;;19.77;10.90;;;;;;;3.57;100.00;96169.88;5101980;27;20300;-88
2022/12/05 03:22:19;;;;;;;21.10;11.80;;;;;;;3.53;100.00;96182.75;5107144;27;20234;-88
2022/12/05 03:24:47;;;;;;;18.73;10.90;;;;;;;3.45;100.00;96174.88;5101694;28;20196;-88
2022/12/05 03:27:22;;;;;;;19.90;11.07;;;;;;;3.56;100.00;96171.72;5105169;27;20235;-89
2022/12/05 03:29:54;;;;;;;19.13;10.77;;;;;;;3.51;100.00;96168.78;5094783;28;20216;-88
2022/12/05 03:32:27;;;;;;;17.73;10.33;;;;;;;3.54;100.00;96189.75;5099644;28;20208;-88
2022/12/05 03:35:05;;;;;;;18.90;10.40;;;;;;;3.50;100.00;96169.78;5101705;27;20202;-88
2022/12/05 03:37:43;;;;;;;18.97;10.47;;;;;;;3.65;100.00;96188.44;5114459;27;20215;-88
2022/12/05 03:40:22;;;;;;;18.03;10.13;;;;;;;3.69;100.00;96195.84;5094517;28;20221;-87
2022/12/05 03:42:54;;;;;;;16.47;9.77;;;;;;;3.69;100.00;96195.03;5111276;27;20203;-89
2022/12/05 03:45:28;;;;;;;16.03;9.33;;;;;;;3.61;100.00;96190.66;5111038;28;20200;-89
2022/12/05 03:48:07;;;;;;;12.63;8.43;;;;;;;3.57;100.00;96189.41;5105627;28;20302;-89
2022/12/05 03:50:38;;;;;;;13.23;8.43;;;;;;;3.60;100.00;96205.00;5095033;28;20192;-89
2022/12/05 03:53:10;;;;;;;13.27;8.30;;;;;;;3.53;100.00;96195.28;5102358;28;20207;-89
2022/12/05 03:55:40;;;;;;;14.97;9.23;;;;;;;3.59;100.00;96211.38;5106444;28;20311;-88
2022/12/05 03:58:11;;;;;;;14.53;8.73;;;;;;;3.57;100.00;96197.41;5092548;28;20218;-89
2022/12/05 04:00:42;;;;;;;13.87;8.73;;;;;;;3.50;100.00;96192.97;5110382;28;20268;-88
2022/12/05 04:03:16;;;;;;;12.90;8.13;;;;;;;3.56;100.00;96203.75;5104829;28;20219;-89
2022/12/05 04:05:48;;;;;;;13.27;8.13;;;;;;;3.45;100.00;96172.22;5099920;28;20211;-89
2022/12/05 04:08:21;;;;;;;14.47;9.00;;;;;;;3.54;100.00;96195.09;5094073;28;20203;-90
2022/12/05 04:10:51;;;;;;;13.63;8.13;;;;;;;3.62;100.00;96207.50;5107309;27;20303;-90
2022/12/05 04:13:24;;;;;;;13.80;8.07;;;;;;;3.59;100.00;96210.53;5103464;27;20199;-90
2022/12/05 04:18:50;;;;;;;12.13;8.37;;;;;;;3.45;100.00;96206.09;5109521;27;20223;-89
2022/12/05 04:21:38;;;;;;;12.37;7.70;;;;;;;3.45;100.00;96212.25;5103044;28;20233;-89
2022/12/05 04:27:13;;;;;;;15.57;8.53;;;;;;;3.50;100.00;96230.34;5095078;28;20232;-89
2022/12/05 04:29:49;;;;;;;15.30;9.47;;;;;;;3.38;100.00;96227.38;5097219;28;20208;-90
2022/12/05 04:32:19;;;;;;;15.00;8.70;;;;;;;3.37;100.00;96212.38;5104534;28;20191;-88
2022/12/05 04:34:55;;;;;;;16.93;9.40;;;;;;;3.50;100.00;96228.50;5097062;28;20200;-89
2022/12/05 04:37:26;;;;;;;20.30;10.03;;;;;;;3.51;100.00;96227.50;5108357;28;20208;-90
2022/12/05 04:39:58;;;;;;;14.23;8.60;;;;;;;3.44;100.00;96213.25;5108714;28;20253;-88
2022/12/05 04:42:29;;;;;;;15.90;9.07;;;;;;;3.50;100.00;96230.34;5108262;28;20224;-86
2022/12/05 04:45:03;;;;;;;16.67;9.67;;;;;;;3.52;100.00;96249.69;5102567;28;20269;-86
2022/12/05 04:47:35;;;;;;;17.73;9.50;;;;;;;3.44;100.00;96237.28;5111341;28;20204;-87
2022/12/05 04:50:06;;;;;;;17.10;10.10;;;;;;;3.53;100.00;96257.50;5094485;28;20269;-87
2022/12/05 04:52:36;;;;;;;20.57;10.93;;;;;;;3.45;100.00;96243.47;5123334;27;20267;-87
2022/12/05 04:55:09;;;;;;;17.47;10.23;;;;;;;3.58;100.00;96265.78;5108553;28;20215;-86
2022/12/05 04:57:45;;;;;;;19.50;11.57;;;;;;;3.59;100.00;96275.44;5102699;28;20240;-86
2022/12/05 05:00:13;;;;;;;21.17;11.93;;;;;;;3.46;100.00;96269.97;5119080;27;20228;-87
2022/12/05 05:02:45;;;;;;;19.77;11.67;;;;;;;3.40;100.00;96260.03;5104471;27;20247;-87
2022/12/05 05:05:18;;;;;;;23.30;12.93;;;;;;;3.49;100.00;96261.56;5110261;27;20265;-87
2022/12/05 05:07:46;;;;;;;21.47;12.33;;;;;;;3.44;100.00;96253.31;5111926;27;20204;-86
2022/12/05 05:10:19;;;;;;;27.07;14.07;;;;;;;3.51;100.00;96270.22;5119270;27;20297;-86
2022/12/05 05:12:46;;;;;;;30.97;15.00;;;;;;;3.43;100.00;96248.97;5101401;27;20203;-86
2022/12/05 05:15:14;;;;;;;23.40;13.17;;;;;;;3.49;100.00;96261.56;5107283;27;20214;-87
2022/12/05 05:17:41;;;;;;;22.03;12.33;;;;;;;3.59;100.00;96279.94;5105796;27;20223;-87
2022/12/05 05:20:25;;;;;;;20.00;11.60;;;;;;;3.57;100.00;96285.50;5105854;27;20196;-87
2022/12/05 05:22:55;;;;;;;21.63;11.87;;;;;;;3.58;100.00;96279.13;5104960;27;20219;-86
2022/12/05 05:25:24;;;;;;;20.63;11.13;;;;;;;3.43;100.00;96257.81;5102782;27;20236;-87
2022/12/05 05:27:54;;;;;;;20.87;11.00;;;;;;;3.53;100.00;96278.88;5096483;27;20211;-86
2022/12/05 05:30:23;;;;;;;19.30;11.73;;;;;;;3.58;100.00;96275.63;5101273;27;20212;-87
2022/12/05 05:32:50;;;;;;;20.13;11.93;;;;;;;3.50;100.00;96263.22;5105113;27;20234;-87
2022/12/05 05:35:19;;;;;;;21.33;12.33;;;;;;;3.63;100.00;96290.09;5110147;27;20204;-87
2022/12/05 05:37:46;;;;;;;21.50;11.90;;;;;;;3.57;100.00;96282.00;5127652;27;20196;-88
2022/12/05 05:40:15;;;;;;;19.77;11.47;;;;;;;3.57;100.00;96271.31;5105297;28;20203;-88
2022/12/05 05:42:43;;;;;;;19.70;11.77;;;;;;;3.59;100.00;96275.44;5096723;28;20306;-88
2022/12/05 05:45:12;;;;;;;19.83;11.23;;;;;;;3.61;100.00;96284.09;5108747;27;20211;-87
2022/12/05 05:47:40;;;;;;;21.47;12.43;;;;;;;3.52;100.00;96277.22;5112277;28;20296;-87
2022/12/05 05:50:09;;;;;;;19.47;11.27;;;;;;;3.55;100.00;96287.53;5100593;27;20207;-88
2022/12/05 05:52:37;;;;;;;19.57;10.97;;;;;;;3.51;100.00;96286.22;5100265;27;20207;-88
2022/12/05 05:55:06;;;;;;;18.23;10.77;;;;;;;3.56;100.00;96304.38;5110406;27;20210;-87
2022/12/05 05:57:35;;;;;;;20.27;10.70;;;;;;;3.48;100.00;96286.63;5107061;28;20231;-88
2022/12/05 06:00:04;;;;;;;18.20;10.00;;;;;;;3.59;100.00;96314.66;5102293;28;20204;-88
2022/12/05 06:02:33;;;;;;;16.10;9.50;;;;;;;3.57;100.00;96311.38;5117278;27;20227;-88
2022/12/05 06:05:01;;;;;;;15.23;9.17;;;;;;;3.61;100.00;96329.47;5109528;27;20303;-88
2022/12/05 06:07:28;;;;;;;15.20;8.43;;;;;;;3.52;100.00;96308.41;5097443;27;20238;-88
2022/12/05 06:09:55;;;;;;;13.67;7.90;;;;;;;3.58;100.00;96321.84;5107679;27;20302;-88
2022/12/05 06:12:22;;;;;;;9.90;6.30;;;;;;;3.63;100.00;96316.78;5104339;27;20214;-88
2022/12/05 06:14:51;;;;;;;13.27;7.20;;;;;;;3.55;100.00;96319.56;5108186;27;20252;-88
2022/12/05 06:17:18;;;;;;;10.00;6.03;;;;;;;3.60;100.00;96317.16;5099853;27;20204;-88
2022/12/05 06:19:46;;;;;;;14.63;7.97;;;;;;;3.66;100.00;96331.56;5099532;27;20200;-88
2022/12/05 06:22:13;;;;;;;17.37;9.17;;;;;;;3.67;100.00;96343.91;5111365;27;20239;-88
2022/12/05 06:24:41;;;;;;;12.93;6.53;;;;;;;3.58;100.00;96337.84;5109305;27;20200;-88
2022/12/05 06:27:08;;;;;;;7.47;5.07;;;;;;;3.58;100.00;96337.84;5108640;27;20258;-89
2022/12/05 06:29:35;;;;;;;9.87;5.40;;;;;;;3.59;100.00;96336.84;5109854;27;20196;-88
2022/12/05 06:32:05;;;;;;;6.63;4.53;;;;;;;3.44;100.00;96325.38;5106228;27;20303;-89
2022/12/05 06:34:34;;;;;;;38.10;25.43;;;;;;;3.50;100.00;96331.78;5113198;27;20207;-90
2022/12/05 06:37:01;;;;;;;11.37;7.07;;;;;;;3.60;100.00;96351.84;5113329;27;20199;-88
2022/12/05 06:39:28;;;;;;;7.87;4.57;;;;;;;3.48;100.00;96348.03;5097424;28;20200;-88
2022/12/05 06:41:56;;;;;;;7.13;4.40;;;;;;;3.51;100.00;96366.31;5101709;27;20260;-88
2022/12/05 06:44:25;;;;;;;6.80;4.30;;;;;;;3.50;100.00;96370.00;5107421;27;20295;-88
2022/12/05 06:46:53;;;;;;;7.53;4.80;;;;;;;3.38;100.00;96360.81;5095795;27;20207;-88
2022/12/05 06:49:25;;;;;;;6.53;4.70;;;;;;;3.38;100.00;96383.00;5106559;27;20239;-88
2022/12/05 06:51:53;;;;;;;13.50;7.43;;;;;;;3.23;100.00;96368.00;5108916;27;20203;-88
2022/12/05 06:54:20;;;;;;;16.07;8.43;;;;;;;3.15;100.00;96373.44;5103401;27;20199;-89
2022/12/05 06:56:48;;;;;;;13.93;7.10;;;;;;;3.10;100.00;96373.13;5103917;28;20222;-89
2022/12/05 06:59:15;;;;;;;9.87;5.83;;;;;;;3.00;100.00;96358.22;5106856;28;20219;-90
2022/12/05 07:01:45;;;;;;;13.07;7.00;;;;;;;3.12;100.00;96368.47;5106219;27;20230;-90
2022/12/05 07:04:15;;;;;;;9.43;5.23;;;;;;;3.13;100.00;96370.13;5110060;27;20244;-90
2022/12/05 07:06:45;;;;;;;9.13;5.10;;;;;;;3.01;100.00;96364.41;5101575;27;20232;-89
2022/12/05 07:09:13;;;;;;;9.73;5.83;;;;;;;2.96;100.00;96372.97;5102474;27;20211;-90
2022/12/05 07:12:29;;;;;;;;;;;;;;;;;;;;;
2022/12/05 07:15:18;;;;;;;12.00;6.67;;;;;;;2.92;100.00;96410.81;5090555;27;20371;-90
2022/12/05 07:17:45;;;;;;;10.50;5.67;;;;;;;2.98;100.00;96423.44;5099711;27;20224;-90
2022/12/05 07:20:16;;;;;;;10.77;7.33;;;;;;;2.93;100.00;96402.66;5096486;27;20204;-88
2022/12/05 07:22:46;;;;;;;8.87;5.73;;;;;;;2.89;100.00;96417.34;5101885;28;20227;-90
2022/12/05 07:25:16;;;;;;;10.07;5.50;;;;;;;2.68;100.00;96411.88;5099248;27;20265;-89
2022/12/05 07:28:26;;;;;;;9.83;5.60;;;;;;;2.57;100.00;96412.28;5098066;27;20204;-89
2022/12/05 07:31:15;;;;;;;11.13;5.77;;;;;;;2.41;100.00;96412.44;5094377;27;20219;-88
2022/12/05 07:33:43;;;;;;;10.80;6.50;;;;;;;2.33;100.00;96397.34;5096702;27;20271;-88
2022/12/05 07:43:38;;;;;;;10.57;5.50;;;;;;;2.22;100.00;96385.25;4983848;28;20270;-88
2022/12/05 07:46:10;;;;;;;12.13;7.30;;;;;;;2.30;100.00;96389.69;5023225;28;20213;-89
2022/12/05 07:48:38;;;;;;;8.00;5.27;;;;;;;2.48;100.00;96408.03;5087176;27;20214;-87
2022/12/05 07:51:09;;;;;;;8.00;5.57;;;;;;;2.52;100.00;96412.03;5101312;28;20228;-88
2022/12/05 07:53:38;;;;;;;6.70;4.23;;;;;;;2.43;100.00;96411.25;5100028;28;20333;-88
2022/12/05 07:56:07;;;;;;;8.50;5.37;;;;;;;2.14;100.00;96406.63;5105272;28;20206;-87
2022/12/05 07:58:35;;;;;;;8.73;5.03;;;;;;;2.02;100.00;96409.88;5096021;28;20204;-87
2022/12/05 08:01:09;;;;;;;7.37;4.93;;;;;;;2.08;100.00;96423.31;5096620;28;20258;-87
2022/12/05 08:03:37;;;;;;;8.97;5.20;;;;;;;2.14;100.00;96427.09;5097740;28;20226;-87
2022/12/05 08:06:09;;;;;;;7.63;5.20;;;;;;;2.01;100.00;96424.19;5098036;28;20204;-88
2022/12/05 08:08:37;;;;;;;8.77;5.53;;;;;;;2.01;100.00;96429.50;5111591;27;20195;-88
2022/12/05 08:11:08;;;;;;;10.17;5.97;;;;;;;2.06;100.00;96449.28;5107979;28;20227;-88
2022/12/05 08:13:36;;;;;;;11.20;6.23;;;;;;;1.93;100.00;96443.72;5100307;28;20200;-88
2022/12/05 08:16:05;;;;;;;9.30;5.40;;;;;;;1.99;100.00;96458.16;5103011;28;20196;-88
2022/12/05 08:18:34;;;;;;;10.23;6.30;;;;;;;1.98;100.00;96446.66;5103204;27;20223;-87
2022/12/05 08:21:02;;;;;;;9.07;5.43;;;;;;;2.19;100.00;96467.38;5115730;27;20298;-88
2022/12/05 08:23:30;;;;;;;8.30;5.47;;;;;;;2.14;100.00;96459.88;5118842;27;20322;-88
2022/12/05 08:26:02;;;;;;;10.47;6.57;;;;;;;2.05;100.00;96463.59;5100944;28;20227;-87
2022/12/05 08:28:30;;;;;;;9.70;5.70;;;;;;;1.89;100.00;96459.19;5094695;28;20301;-87
2022/12/05 08:31:03;;;;;;;8.07;5.00;;;;;;;1.95;100.00;96457.69;5094709;28;20248;-87
2022/12/05 08:33:31;;;;;;;8.47;4.87;;;;;;;2.07;100.00;96463.44;5103324;28;20333;-87
2022/12/05 08:36:02;;;;;;;8.87;4.93;;;;;;;2.17;100.00;96472.88;5098143;27;20194;-87
2022/12/05 08:38:29;;;;;;;7.73;5.10;;;;;;;2.08;100.00;96460.59;5102422;27;20204;-87
2022/12/05 08:40:56;;;;;;;7.50;5.00;;;;;;;2.09;100.00;96472.91;5101070;27;20211;-87
2022/12/05 08:43:24;;;;;;;8.10;5.13;;;;;;;2.12;100.00;96480.56;5100416;28;20243;-87
2022/12/05 08:45:51;;;;;;;8.37;5.37;;;;;;;2.18;100.00;96481.69;5101976;28;20256;-87
2022/12/05 08:48:19;;;;;;;7.37;4.80;;;;;;;2.08;100.00;96473.91;5096118;28;20208;-88
2022/12/05 08:50:46;;;;;;;12.43;5.77;;;;;;;2.08;100.00;96500.56;5115342;27;20203;-88
2022/12/05 08:53:15;;;;;;;8.57;5.50;;;;;;;2.06;100.00;96494.56;5097386;27;20207;-87
2022/12/05 08:55:44;;;;;;;11.23;5.60;;;;;;;1.98;100.00;96483.13;5107026;27;20203;-88
2022/12/05 08:58:12;;;;;;;8.97;6.10;;;;;;;2.00;100.00;96481.94;5103617;28;20210;-88
2022/12/05 09:00:39;;;;;;;7.07;5.03;;;;;;;1.94;100.00;96474.66;5104116;27;20225;-89
2022/12/05 09:03:11;;;;;;;7.97;4.67;;;;;;;1.85;100.00;96473.03;5105670;27;20218;-87
2022/12/05 09:05:38;;;;;;;9.17;5.77;;;;;;;1.89;100.00;96495.63;5101656;27;20195;-88
2022/12/05 09:08:08;;;;;;;10.87;6.37;;;;;;;1.94;100.00;96487.16;5098338;27;20206;-88
2022/12/05 09:10:37;;;;;;;9.17;5.70;;;;;;;1.87;100.00;96474.50;5112915;28;20207;-88
2022/12/05 09:13:05;;;;;;;8.20;5.50;;;;;;;1.90;100.00;96494.63;5101840;27;20309;-88
2022/12/05 09:15:32;;;;;;;7.30;4.67;;;;;;;1.90;100.00;96497.28;5104706;28;20226;-89
2022/12/05 09:17:59;;;;;;;8.13;4.80;;;;;;;1.85;100.00;96505.00;5104825;27;20242;-88
2022/12/05 09:20:27;;;;;;;9.20;5.20;;;;;;;1.84;100.00;96495.34;5111504;27;20194;-88
2022/12/05 09:22:54;;;;;;;12.53;6.13;;;;;;;1.84;100.00;96504.16;5104591;27;20230;-88
2022/12/05 09:25:21;;;;;;;14.23;6.93;;;;;;;1.89;100.00;96527.59;5103452;28;20238;-88
2022/12/05 09:27:50;;;;;;;10.63;5.73;;;;;;;1.74;100.00;96492.88;5107318;27;20202;-88
2022/12/05 09:30:17;;;;;;;11.93;5.37;;;;;;;1.83;100.00;96496.34;5103249;27;20204;-89
2022/12/05 09:32:45;;;;;;;9.20;5.57;;;;;;;1.96;100.00;96507.25;5099893;27;20238;-88
2022/12/05 09:35:12;;;;;;;10.13;5.40;;;;;;;2.00;100.00;96508.56;5103715;27;20203;-88
2022/12/05 09:37:40;;;;;;;8.10;5.00;;;;;;;2.07;100.00;96514.88;5102642;28;20247;-88
2022/12/05 09:40:15;;;;;;;8.20;4.70;;;;;;;2.03;100.00;96494.94;5100769;28;20208;-87
2022/12/05 09:42:57;;;;;;;7.80;5.33;;;;;;;2.18;100.00;96503.00;5097354;27;20219;-87
2022/12/05 09:45:28;;;;;;;10.97;4.90;;;;;;;2.16;100.00;96494.34;5097482;28;20216;-88
2022/12/05 09:48:00;;;;;;;6.80;4.63;;;;;;;2.08;100.00;96484.56;5099308;27;20210;-86
2022/12/05 09:50:31;;;;;;;7.30;4.37;;;;;;;2.08;100.00;96491.72;5108590;28;20208;-87
2022/12/05 09:53:06;;;;;;;8.47;5.70;;;;;;;2.05;100.00;96508.03;5106654;27;20204;-87
2022/12/05 09:55:44;;;;;;;7.60;4.57;;;;;;;1.85;100.00;96508.47;5106327;27;20202;-87
2022/12/05 09:58:26;;;;;;;7.77;4.40;;;;;;;1.62;100.00;96509.38;5097534;27;20200;-87
2022/12/05 10:01:03;;;;;;;7.70;4.67;;;;;;;1.60;100.00;96506.91;5106229;27;20215;-88
2022/12/05 10:03:39;;;;;;;7.90;4.87;;;;;;;1.70;100.00;96515.50;5106886;27;20305;-87
2022/12/05 10:06:15;;;;;;;10.30;5.17;;;;;;;1.75;100.00;96515.84;5111904;27;20218;-87
2022/12/05 10:09:02;;;;;;;7.90;4.93;;;;;;;1.78;100.00;96527.97;5113241;27;20203;-87
2022/12/05 10:11:36;;;;;;;8.70;5.77;;;;;;;1.74;100.00;96518.66;5106426;27;20210;-87
2022/12/05 10:14:12;;;;;;;8.23;5.30;;;;;;;1.74;100.00;96513.34;5110973;27;20206;-87
2022/12/05 10:16:46;;;;;;;5.90;4.10;;;;;;;1.86;100.00;96522.63;5110583;27;20293;-88
2022/12/05 10:19:18;;;;;;;7.47;3.67;;;;;;;1.73;100.00;96506.34;5098844;28;20254;-88
2022/12/05 10:21:52;;;;;;;6.33;4.07;;;;;;;1.77;100.00;96502.34;5106676;27;20217;-88
2022/12/05 10:24:27;;;;;;;5.43;3.43;;;;;;;1.74;100.00;96510.69;5098486;28;20321;-87
2022/12/05 10:26:59;;;;;;;4.37;3.20;;;;;;;1.80;100.00;96516.13;5106901;27;20241;-89
2022/12/05 10:29:38;;;;;;;6.43;3.60;;;;;;;1.85;100.00;96513.81;5099842;27;20209;-88
2022/12/05 10:32:14;;;;;;;5.27;3.50;;;;;;;1.78;100.00;96507.50;5094248;27;20211;-87
2022/12/05 10:34:44;;;;;;;6.13;3.70;;;;;;;1.69;100.00;96507.72;5100386;28;20204;-87
2022/12/05 10:37:16;;;;;;;6.47;4.03;;;;;;;1.75;100.00;96509.69;5094335;27;20207;-87
2022/12/05 10:39:46;;;;;;;7.50;4.03;;;;;;;1.87;100.00;96525.09;5094056;27;20215;-87
2022/12/05 10:42:16;;;;;;;5.13;3.87;;;;;;;1.85;100.00;96500.50;5097960;27;20210;-87
2022/12/05 10:44:48;;;;;;;7.33;3.93;;;;;;;1.99;100.00;96514.06;5099151;28;20199;-87
2022/12/05 10:47:16;;;;;;;4.57;3.17;;;;;;;1.90;100.00;96514.09;5099067;28;20254;-87
2022/12/05 10:49:44;;;;;;;3.30;2.50;;;;;;;1.72;100.00;96515.34;5104342;27;20226;-87
2022/12/05 10:52:13;;;;;;;4.23;3.00;;;;;;;1.72;100.00;96521.50;5103092;27;20240;-87
2022/12/05 10:54:47;;;;;;;6.23;3.77;;;;;;;1.67;100.00;96528.34;5104828;28;20200;-87
2022/12/05 10:57:27;;;;;;;6.03;3.30;;;;;;;1.73;100.00;96523.16;5104936;28;20220;-88
2022/12/05 10:59:56;;;;;;;4.90;3.13;;;;;;;1.70;100.00;96522.69;5095661;27;20207;-87
2022/12/05 11:02:27;;;;;;;4.13;2.73;;;;;;;1.48;100.00;96516.22;5104064;27;20297;-87
2022/12/05 11:04:55;;;;;;;6.60;4.17;;;;;;;1.57;100.00;96533.00;5105627;27;20222;-88
2022/12/05 11:07:30;;;;;;;6.23;3.80;;;;;;;1.60;100.00;96528.19;5097867;28;20253;-88
2022/12/05 11:09:59;;;;;;;5.70;3.90;;;;;;;1.64;100.00;96518.00;5098220;27;20312;-88
2022/12/05 11:12:36;;;;;;;4.37;3.37;;;;;;;1.67;100.00;96512.38;5097467;27;20211;-88
2022/12/05 11:15:24;;;;;;;5.13;3.40;;;;;;;1.61;100.00;96510.41;5098258;27;20218;-88
2022/12/05 11:17:53;;;;;;;4.70;3.40;;;;;;;1.63;100.00;96509.19;5098728;27;20234;-88
2022/12/05 11:20:40;;;;;;;5.27;2.73;;;;;;;1.64;100.00;96507.38;5100177;27;20227;-91
2022/12/05 11:23:23;;;;;;;3.70;2.70;;;;;;;1.59;100.00;96494.59;5091262;27;20299;-90
2022/12/05 11:25:51;;;;;;;3.23;2.20;;;;;;;1.47;100.00;96495.94;5122209;27;20237;-90
2022/12/05 11:28:35;;;;;;;5.10;3.60;;;;;;;1.56;100.00;96502.06;5083840;27;20204;-88
2022/12/05 11:31:09;;;;;;;7.60;4.00;;;;;;;1.56;100.00;96510.88;5106332;27;20211;-87
2022/12/05 11:33:37;;;;;;;7.07;3.23;;;;;;;1.56;100.00;96504.75;5107343;27;20198;-87
2022/12/05 11:36:17;;;;;;;4.43;3.10;;;;;;;1.48;100.00;96498.44;5103566;28;20198;-87
2022/12/05 11:38:45;;;;;;;6.77;3.23;;;;;;;1.46;100.00;96505.75;5100594;27;20196;-87
2022/12/05 11:41:34;;;;;;;4.57;3.30;;;;;;;1.40;100.00;96501.13;5096066;28;20211;-88
2022/12/05 11:44:25;;;;;;;5.37;3.63;;;;;;;1.34;100.00;96488.50;5100818;27;20347;-86
2022/12/05 11:47:07;;;;;;;6.50;3.13;;;;;;;1.41;100.00;96486.00;5095734;28;20200;-88
2022/12/05 11:49:55;;;;;;;6.53;3.83;;;;;;;1.38;100.00;96484.50;5101588;27;20196;-91
2022/12/05 11:52:32;;;;;;;7.50;3.90;;;;;;;1.28;100.00;96486.50;5100426;28;20206;-89
2022/12/05 11:55:14;;;;;;;8.50;4.83;;;;;;;1.29;100.00;96498.81;5100633;28;20212;-89
2022/12/05 11:57:58;;;;;;;7.70;4.80;;;;;;;1.22;100.00;96475.72;5100965;28;20316;-88
2022/12/05 12:00:32;;;;;;;9.23;5.43;;;;;;;1.34;100.00;96485.84;5103784;28;20204;-88
2022/12/05 12:03:25;;;;;;;11.33;5.40;;;;;;;1.14;100.00;96477.41;5105405;28;20227;-88
2022/12/05 12:06:07;;;;;;;9.63;5.50;;;;;;;1.19;100.00;96479.56;5098436;28;20209;-89
2022/12/05 12:08:39;;;;;;;11.30;5.97;;;;;;;1.24;100.00;96479.88;5098107;28;20205;-88